createdAt,value
2018-06-10T00:01:13.807Z,82.02
2018-06-10T00:03:43.012Z,80.62
2018-06-10T00:06:12.311Z,80.91
2018-06-10T00:08:41.874Z,81.33
2018-06-10T00:11:11.034Z,81.67
2018-06-10T00:13:40.211Z,82.54
2018-06-10T00:16:09.366Z,81.71
2018-06-10T00:18:38.519Z,81.98
2018-06-10T00:21:07.706Z,81.77
2018-06-10T00:23:36.875Z,81.60
2018-06-10T00:26:06.155Z,81.33
2018-06-10T00:28:40.511Z,81.53
2018-06-10T00:31:09.698Z,82.17
2018-06-10T00:33:38.851Z,83.03
2018-06-10T00:36:08.053Z,83.54
2018-06-10T00:38:37.215Z,83.79
2018-06-10T00:41:06.609Z,84.15
2018-06-10T00:43:35.768Z,84.67
2018-06-10T00:46:04.958Z,84.87
2018-06-10T00:48:34.118Z,85.04
2018-06-10T00:51:03.539Z,85.06
2018-06-10T00:53:32.705Z,84.78
2018-06-10T00:56:12.238Z,83.90
2018-06-10T00:58:41.379Z,84.47
2018-06-10T01:01:10.566Z,83.98
2018-06-10T01:03:39.711Z,84.50
2018-06-10T01:06:08.887Z,84.81
2018-06-10T01:08:38.041Z,83.86
2018-06-10T01:11:07.360Z,84.68
2018-06-10T01:13:36.550Z,84.40
2018-06-10T01:16:05.743Z,84.34
2018-06-10T01:18:34.915Z,84.47
2018-06-10T01:21:04.094Z,84.64
2018-06-10T01:23:33.259Z,84.36
2018-06-10T01:26:02.438Z,84.86
2018-06-10T01:28:31.614Z,84.57
2018-06-10T01:31:00.786Z,84.44
2018-06-10T01:33:29.959Z,85.09
2018-06-10T01:35:59.147Z,85.40
2018-06-10T01:38:28.319Z,84.76
2018-06-10T01:40:57.490Z,84.57
2018-06-10T01:43:26.641Z,86.66
2018-06-10T01:45:56.207Z,87.63
2018-06-10T01:48:25.360Z,87.41
2018-06-10T01:50:54.538Z,87.23
2018-06-10T01:53:23.715Z,87.53
2018-06-10T01:55:52.891Z,87.57
2018-06-10T01:58:22.056Z,89.59
2018-06-10T02:00:51.247Z,88.10
2018-06-10T02:03:20.407Z,88.59
2018-06-10T02:05:49.577Z,89.47
2018-06-10T02:08:18.747Z,89.06
2018-06-10T02:10:47.915Z,89.35
2018-06-10T02:13:17.219Z,89.41
2018-06-10T02:15:47.107Z,88.86
2018-06-10T02:18:16.294Z,88.58
2018-06-10T02:20:45.442Z,88.17
2018-06-10T02:23:14.649Z,88.94
2018-06-10T02:25:43.806Z,90.07
2018-06-10T02:28:13.206Z,88.11
2018-06-10T02:30:42.379Z,86.91
2018-06-10T02:33:11.567Z,88.13
2018-06-10T02:35:40.722Z,88.95
2018-06-10T02:38:09.914Z,89.51
2018-06-10T02:40:39.386Z,87.65
2018-06-10T02:43:08.570Z,88.80
2018-06-10T02:45:38.451Z,88.44
2018-06-10T02:48:07.846Z,87.74
2018-06-10T02:50:37.419Z,87.93
2018-06-10T02:53:06.639Z,88.69
2018-06-10T02:55:35.802Z,88.06
2018-06-10T02:58:04.991Z,89.43
2018-06-10T03:00:34.363Z,88.66
2018-06-10T03:03:03.894Z,88.68
2018-06-10T03:05:33.047Z,88.19
2018-06-10T03:08:02.255Z,88.16
2018-06-10T03:10:31.430Z,87.23
2018-06-10T03:13:01.231Z,87.63
2018-06-10T03:15:30.375Z,87.27
2018-06-10T03:17:59.567Z,86.97
2018-06-10T03:20:28.887Z,87.65
2018-06-10T03:22:58.295Z,87.54
2018-06-10T03:25:27.731Z,88.47
2018-06-10T03:27:56.902Z,88.67
2018-06-10T03:30:26.056Z,87.49
2018-06-10T03:32:55.387Z,87.69
2018-06-10T03:35:24.579Z,87.60
2018-06-10T03:37:53.742Z,87.40
2018-06-10T03:40:23.623Z,88.05
2018-06-10T03:42:52.802Z,87.21
2018-06-10T03:45:21.955Z,87.46
2018-06-10T03:47:51.739Z,87.04
2018-06-10T03:50:20.909Z,87.30
2018-06-10T03:52:50.106Z,87.17
2018-06-10T03:55:20.082Z,86.88
2018-06-10T03:57:49.426Z,87.17
2018-06-10T04:00:18.806Z,86.59
2018-06-10T04:02:48.291Z,87.02
2018-06-10T04:05:17.740Z,86.27
2018-06-10T04:07:46.923Z,86.80
2018-06-10T04:10:16.454Z,84.84
2018-06-10T04:12:45.882Z,85.11
2018-06-10T04:15:15.050Z,84.70
2018-06-10T04:17:44.467Z,84.73
2018-06-10T04:20:13.953Z,83.48
2018-06-10T04:22:43.226Z,83.83
2018-06-10T04:25:12.466Z,82.83
2018-06-10T04:27:41.647Z,82.39
2018-06-10T04:30:11.755Z,82.08
2018-06-10T04:32:42.118Z,81.25
2018-06-10T04:35:11.275Z,81.45
2018-06-10T04:37:40.454Z,80.97
2018-06-10T04:40:09.618Z,79.75
2018-06-10T04:42:39.038Z,79.75
2018-06-10T04:45:08.470Z,80.87
2018-06-10T04:47:37.981Z,81.22
2018-06-10T04:50:07.134Z,81.15
2018-06-10T04:52:36.347Z,80.44
2018-06-10T04:55:05.663Z,80.13
2018-06-10T04:57:34.830Z,80.13
2018-06-10T05:00:04.022Z,79.08
2018-06-10T05:02:33.238Z,79.86
2018-06-10T05:05:02.407Z,79.88
2018-06-10T05:07:31.593Z,79.72
2018-06-10T05:10:00.750Z,80.26
2018-06-10T05:12:29.995Z,79.55
2018-06-10T05:14:59.376Z,79.71
2018-06-10T05:17:28.552Z,80.29
2018-06-10T05:19:57.738Z,78.83
2018-06-10T05:22:26.884Z,79.25
2018-06-10T05:24:56.070Z,78.04
2018-06-10T05:27:25.466Z,76.25
2018-06-10T05:29:55.162Z,76.06
2018-06-10T05:32:24.339Z,75.13
2018-06-10T05:34:53.505Z,73.82
2018-06-10T05:37:22.646Z,73.52
2018-06-10T05:39:51.810Z,74.32
2018-06-10T05:42:20.995Z,74.90
2018-06-10T05:44:50.446Z,74.34
2018-06-10T05:47:19.603Z,74.10
2018-06-10T05:49:49.943Z,73.71
2018-06-10T05:52:19.506Z,73.17
2018-06-10T05:54:48.702Z,73.01
2018-06-10T05:57:17.871Z,72.37
2018-06-10T05:59:47.049Z,73.30
2018-06-10T06:02:16.570Z,72.69
2018-06-10T06:04:45.766Z,71.80
2018-06-10T06:07:14.947Z,71.33
2018-06-10T06:09:44.115Z,71.91
2018-06-10T06:12:13.287Z,69.35
2018-06-10T06:14:42.778Z,69.64
2018-06-10T06:17:11.952Z,69.39
2018-06-10T06:19:41.126Z,71.81
2018-06-10T06:22:11.210Z,70.83
2018-06-10T06:24:40.395Z,68.91
2018-06-10T06:27:09.571Z,66.72
2018-06-10T06:29:38.987Z,63.14
2018-06-10T06:32:08.135Z,59.08
2018-06-10T06:34:37.595Z,56.36
2018-06-10T06:37:06.904Z,57.85
2018-06-10T06:39:36.078Z,54.75
2018-06-10T06:42:05.253Z,52.86
2018-06-10T06:44:34.432Z,57.07
2018-06-10T06:47:04.161Z,57.35
2018-06-10T06:49:33.338Z,57.49
2018-06-10T06:52:03.607Z,57.75
2018-06-10T06:54:32.778Z,56.00
2018-06-10T06:57:01.927Z,54.75
2018-06-10T06:59:31.095Z,50.94
2018-06-10T07:02:00.270Z,50.81
2018-06-10T07:04:29.447Z,50.91
2018-06-10T07:06:58.620Z,48.64
2018-06-10T07:09:28.063Z,47.17
2018-06-10T07:11:57.641Z,46.34
2018-06-10T07:14:26.757Z,45.34
2018-06-10T07:16:56.086Z,49.33
2018-06-10T07:19:25.566Z,49.58
2018-06-10T07:21:54.730Z,47.81
2018-06-10T07:24:23.906Z,47.28
2018-06-10T07:26:53.067Z,47.08
2018-06-10T07:29:22.235Z,47.26
2018-06-10T07:31:51.386Z,46.70
2018-06-10T07:34:20.566Z,43.73
2018-06-10T07:36:49.743Z,44.15
2018-06-10T07:39:18.903Z,43.97
2018-06-10T07:41:48.063Z,43.09
2018-06-10T07:44:17.246Z,44.33
2018-06-10T07:46:46.439Z,41.02
2018-06-10T07:49:15.611Z,42.68
2018-06-10T07:51:44.786Z,42.34
2018-06-10T07:54:13.964Z,39.17
2018-06-10T07:56:43.130Z,37.61
2018-06-10T07:59:12.317Z,38.03
2018-06-10T08:01:41.490Z,37.62
2018-06-10T08:04:10.649Z,38.11
2018-06-10T08:06:40.055Z,36.38
2018-06-10T08:09:09.231Z,39.17
2018-06-10T08:11:38.406Z,40.17
2018-06-10T08:14:07.598Z,42.92
2018-06-10T08:16:36.750Z,46.51
2018-06-10T08:19:05.922Z,50.78
2018-06-10T08:21:35.084Z,45.07
2018-06-10T08:24:04.611Z,41.12
2018-06-10T08:26:34.724Z,39.11
2018-06-10T08:29:03.888Z,37.07
2018-06-10T08:31:33.042Z,37.92
2018-06-10T08:34:02.446Z,34.87
2018-06-10T08:36:31.639Z,32.22
2018-06-10T08:39:01.651Z,32.12
2018-06-10T08:41:30.826Z,35.31
2018-06-10T08:44:00.078Z,37.59
2018-06-10T08:46:29.187Z,35.15
2018-06-10T08:48:58.359Z,33.86
2018-06-10T08:51:27.507Z,32.21
2018-06-10T08:53:56.691Z,31.70
2018-06-10T08:56:25.852Z,30.77
2018-06-10T08:58:55.035Z,30.39
2018-06-10T09:01:24.202Z,31.41
2018-06-10T09:03:53.527Z,30.91
2018-06-10T09:06:23.079Z,31.07
2018-06-10T09:08:52.291Z,29.97
2018-06-10T09:11:21.443Z,29.99
2018-06-10T09:13:50.614Z,29.04
2018-06-10T09:16:20.270Z,28.35
2018-06-10T09:18:49.990Z,28.10
2018-06-10T09:21:19.158Z,28.15
2018-06-10T09:23:48.310Z,26.93
2018-06-10T09:26:17.482Z,25.08
2018-06-10T09:28:46.710Z,26.65
2018-06-10T09:31:16.079Z,25.62
2018-06-10T09:33:45.354Z,25.68
2018-06-10T09:36:14.533Z,23.64
2018-06-10T09:38:44.050Z,25.57
2018-06-10T09:41:13.246Z,24.39
2018-06-10T09:43:42.407Z,24.90
2018-06-10T09:46:11.919Z,25.05
2018-06-10T09:48:41.083Z,27.10
2018-06-10T09:51:10.267Z,27.24
2018-06-10T09:53:39.426Z,26.78
2018-06-10T09:56:08.626Z,25.42
2018-06-10T09:58:37.808Z,25.35
2018-06-10T10:01:08.151Z,24.63
2018-06-10T10:03:37.302Z,24.66
2018-06-10T10:06:06.487Z,27.62
2018-06-10T10:08:35.645Z,28.81
2018-06-10T10:11:05.078Z,28.60
2018-06-10T10:13:34.238Z,28.45
2018-06-10T10:16:03.403Z,26.08
2018-06-10T10:18:32.562Z,25.73
2018-06-10T10:21:01.787Z,28.11
2018-06-10T10:23:30.937Z,24.88
2018-06-10T10:26:00.110Z,27.54
2018-06-10T10:28:29.258Z,33.25
2018-06-10T10:30:58.454Z,32.97
2018-06-10T10:33:27.594Z,29.99
2018-06-10T10:35:56.879Z,30.24
2018-06-10T10:38:26.052Z,30.02
2018-06-10T10:40:55.443Z,30.22
2018-06-10T10:43:24.602Z,31.34
2018-06-10T10:45:54.138Z,30.69
2018-06-10T10:48:23.966Z,28.99
2018-06-10T10:50:53.151Z,25.30
2018-06-10T10:53:22.330Z,25.07
2018-06-10T10:55:51.523Z,24.22
2018-06-10T10:58:20.814Z,26.84
2018-06-10T11:00:49.987Z,26.61
2018-06-10T11:03:19.224Z,25.96
2018-06-10T11:05:48.411Z,29.11
2018-06-10T11:08:17.625Z,31.20
2018-06-10T11:10:46.874Z,32.03
2018-06-10T11:13:16.114Z,33.85
2018-06-10T11:15:45.604Z,34.95
2018-06-10T11:18:15.118Z,31.76
2018-06-10T11:20:44.527Z,32.09
2018-06-10T11:23:13.674Z,30.07
2018-06-10T11:25:42.854Z,30.26
2018-06-10T11:28:12.010Z,28.41
2018-06-10T11:30:41.674Z,28.97
2018-06-10T11:33:10.811Z,30.04
2018-06-10T11:35:40.003Z,31.53
2018-06-10T11:38:09.154Z,34.90
2018-06-10T11:40:38.347Z,34.42
2018-06-10T11:43:07.711Z,30.49
2018-06-10T11:45:36.911Z,28.69
2018-06-10T11:48:06.062Z,29.39
2018-06-10T11:50:35.246Z,30.24
2018-06-10T11:53:04.574Z,31.54
2018-06-10T11:55:34.011Z,33.42
2018-06-10T11:58:03.188Z,36.94
2018-06-10T12:00:32.343Z,37.16
2018-06-10T12:03:01.583Z,35.27
2018-06-10T12:23:24.195Z,33.64
2018-06-10T12:25:53.363Z,33.91
2018-06-10T12:28:22.530Z,33.79
2018-06-10T12:30:51.775Z,30.54
2018-06-10T12:33:20.942Z,29.02
2018-06-10T12:35:50.128Z,26.97
2018-06-10T12:38:19.279Z,25.76
2018-06-10T12:40:48.802Z,25.32
2018-06-10T12:43:17.962Z,23.13
2018-06-10T12:45:47.299Z,23.18
2018-06-10T12:48:17.266Z,26.71
2018-06-10T12:50:46.783Z,28.56
2018-06-10T12:53:16.263Z,31.15
2018-06-10T12:55:45.567Z,35.51
2018-06-10T12:58:14.819Z,35.94
2018-06-10T13:00:43.992Z,31.93
2018-06-10T13:03:13.154Z,28.82
2018-06-10T13:05:42.602Z,29.23
2018-06-10T13:08:11.755Z,31.83
2018-06-10T13:10:41.266Z,33.35
2018-06-10T13:13:11.212Z,31.23
2018-06-10T13:15:40.406Z,27.69
2018-06-10T13:18:09.982Z,27.55
2018-06-10T13:20:39.163Z,26.96
2018-06-10T13:23:08.360Z,25.07
2018-06-10T13:25:37.530Z,27.27
2018-06-10T13:28:06.698Z,27.36
2018-06-10T13:30:35.868Z,26.37
2018-06-10T13:33:05.083Z,28.80
2018-06-10T13:35:34.246Z,25.19
2018-06-10T13:38:03.426Z,25.83
2018-06-10T13:40:32.618Z,26.24
2018-06-10T13:43:02.155Z,26.20
2018-06-10T13:45:31.302Z,26.36
2018-06-10T13:48:00.803Z,26.76
2018-06-10T13:50:30.107Z,26.66
2018-06-10T13:52:59.318Z,25.13
2018-06-10T13:55:28.687Z,24.99
2018-06-10T13:57:57.864Z,25.51
2018-06-10T14:00:27.019Z,24.55
2018-06-10T14:02:56.195Z,26.57
2018-06-10T14:05:25.347Z,28.57
2018-06-10T14:07:54.534Z,29.77
2018-06-10T14:10:23.784Z,32.11
2018-06-10T14:12:52.942Z,33.19
2018-06-10T14:15:22.836Z,31.14
2018-06-10T14:17:52.021Z,30.56
2018-06-10T14:20:21.320Z,30.21
2018-06-10T14:22:50.498Z,30.53
2018-06-10T14:25:19.663Z,31.56
2018-06-10T14:27:48.822Z,29.71
2018-06-10T14:30:18.015Z,30.90
2018-06-10T14:32:47.139Z,30.38
2018-06-10T14:35:16.278Z,29.41
2018-06-10T14:37:45.882Z,29.23
2018-06-10T14:40:15.639Z,29.12
2018-06-10T14:42:44.827Z,29.11
2018-06-10T14:45:14.310Z,28.37
2018-06-10T14:47:43.709Z,28.49
2018-06-10T14:50:12.863Z,29.45
2018-06-10T14:52:42.046Z,29.34
2018-06-10T14:55:11.307Z,32.46
2018-06-10T14:57:40.794Z,30.43
2018-06-10T15:00:09.933Z,31.15
2018-06-10T15:02:39.338Z,35.75
2018-06-10T15:05:08.493Z,36.81
2018-06-10T15:07:38.264Z,39.31
2018-06-10T15:10:07.418Z,41.72
2018-06-10T15:12:36.848Z,41.05
2018-06-10T15:15:06.044Z,41.67
2018-06-10T15:17:35.371Z,43.41
2018-06-10T15:20:04.692Z,42.24
2018-06-10T15:22:33.871Z,44.85
2018-06-10T15:25:03.044Z,43.63
2018-06-10T15:27:32.225Z,44.42
2018-06-10T15:30:01.394Z,44.94
2018-06-10T15:32:30.568Z,44.46
2018-06-10T15:34:59.855Z,46.72
2018-06-10T15:37:29.264Z,47.96
2018-06-10T15:39:59.183Z,47.33
2018-06-10T15:42:28.356Z,47.94
2018-06-10T15:44:57.514Z,48.56
2018-06-10T15:47:26.867Z,49.31
2018-06-10T15:49:56.101Z,51.00
2018-06-10T15:52:25.231Z,58.50
2018-06-10T15:54:54.382Z,63.31
2018-06-10T15:57:23.918Z,61.44
2018-06-10T15:59:53.067Z,65.66
2018-06-10T16:02:22.420Z,64.37
2018-06-10T16:04:52.072Z,66.35
2018-06-10T16:07:21.291Z,67.18
2018-06-10T16:09:50.454Z,71.45
2018-06-10T16:12:19.935Z,74.42
2018-06-10T16:14:49.139Z,70.58
2018-06-10T16:17:18.384Z,70.77
2018-06-10T16:19:47.853Z,81.31
2018-06-10T16:22:17.154Z,78.16
2018-06-10T16:24:46.314Z,76.22
2018-06-10T16:27:15.501Z,76.49
2018-06-10T16:29:44.694Z,74.54
2018-06-10T16:32:13.910Z,74.58
2018-06-10T16:34:43.091Z,79.04
2018-06-10T16:37:12.274Z,76.63
2018-06-10T16:39:42.887Z,77.68
2018-06-10T16:42:12.019Z,79.52
2018-06-10T16:44:41.211Z,79.11
2018-06-10T16:47:10.430Z,80.57
2018-06-10T16:49:39.594Z,82.83
2018-06-10T16:52:08.779Z,81.08
2018-06-10T16:54:38.006Z,78.39
2018-06-10T16:57:07.385Z,80.84
2018-06-10T16:59:36.583Z,81.68
2018-06-10T17:02:05.794Z,76.51
2018-06-10T17:04:34.994Z,79.76
2018-06-10T17:07:04.330Z,78.53
2018-06-10T17:09:33.531Z,78.44
2018-06-10T17:12:02.939Z,76.10
2018-06-10T17:14:32.102Z,75.66
2018-06-10T17:17:01.275Z,76.36
2018-06-10T17:19:30.478Z,74.57
2018-06-10T17:21:59.957Z,76.54
2018-06-10T17:24:29.288Z,73.75
2018-06-10T17:26:59.835Z,73.08
2018-06-10T17:29:29.030Z,73.26
2018-06-10T17:31:58.220Z,72.82
2018-06-10T17:34:27.415Z,70.30
2018-06-10T17:36:56.999Z,70.89
2018-06-10T17:39:26.215Z,74.21
2018-06-10T17:41:55.396Z,69.45
2018-06-10T17:44:24.620Z,73.66
2018-06-10T17:46:54.007Z,73.48
2018-06-10T17:49:23.204Z,72.33
2018-06-10T17:51:52.392Z,72.85
2018-06-10T17:54:22.018Z,75.31
2018-06-10T17:56:51.228Z,74.74
2018-06-10T17:59:20.423Z,73.28
2018-06-10T18:01:49.587Z,74.16
2018-06-10T18:04:19.004Z,72.92
2018-06-10T18:06:48.511Z,76.62
2018-06-10T18:09:17.792Z,77.43
2018-06-10T18:11:46.981Z,78.25
2018-06-10T18:14:16.463Z,78.95
2018-06-10T18:16:45.639Z,77.91
2018-06-10T18:19:14.847Z,78.37
2018-06-10T18:21:44.027Z,77.46
2018-06-10T18:24:13.326Z,79.49
2018-06-10T18:26:42.498Z,79.99
2018-06-10T18:29:11.703Z,80.19
2018-06-10T18:31:40.876Z,80.14
2018-06-10T18:34:10.286Z,80.24
2018-06-10T18:36:39.939Z,80.45
2018-06-10T18:39:09.470Z,80.72
2018-06-10T18:41:38.709Z,80.86
2018-06-10T18:44:07.922Z,81.52
2018-06-10T18:46:37.442Z,81.86
2018-06-10T18:49:07.347Z,81.99
2018-06-10T18:51:37.046Z,81.59
2018-06-10T18:54:06.467Z,82.07
2018-06-10T18:56:35.657Z,82.39
2018-06-10T18:59:04.862Z,81.01
2018-06-10T19:01:34.034Z,82.39
2018-06-10T19:04:03.646Z,82.80
2018-06-10T19:06:33.291Z,82.62
2018-06-10T19:09:02.503Z,83.23
2018-06-10T19:11:31.682Z,83.79
2018-06-10T19:14:00.886Z,81.88
2018-06-10T19:16:30.068Z,83.90
2018-06-10T19:18:59.281Z,83.59
2018-06-10T19:21:28.574Z,83.86
2018-06-10T19:23:58.070Z,83.74
2018-06-10T19:26:27.260Z,83.33
2018-06-10T19:28:56.485Z,85.03
2018-06-10T19:31:25.712Z,83.37
2018-06-10T19:33:54.991Z,83.09
2018-06-10T19:36:24.119Z,83.34
2018-06-10T19:38:53.363Z,84.08
2018-06-10T19:41:22.527Z,83.75
2018-06-10T19:43:51.718Z,83.47
2018-06-10T19:46:21.040Z,83.09
2018-06-10T19:48:50.214Z,84.33
2018-06-10T19:51:19.535Z,85.48
2018-06-10T19:53:49.015Z,84.02
2018-06-10T19:56:18.238Z,83.78
2018-06-10T19:58:47.412Z,84.69
2018-06-10T20:01:16.610Z,84.12
2018-06-10T20:03:45.795Z,85.41
2018-06-10T20:06:15.008Z,83.76
2018-06-10T20:08:44.167Z,84.95
2018-06-10T20:11:13.392Z,87.05
2018-06-10T20:13:42.566Z,86.27
2018-06-10T20:16:11.990Z,85.56
2018-06-10T20:18:41.358Z,86.32
2018-06-10T20:21:10.567Z,87.59
2018-06-10T20:23:39.751Z,86.06
2018-06-10T20:26:09.031Z,86.67
2018-06-10T20:28:38.203Z,87.74
2018-06-10T20:31:07.523Z,86.53
2018-06-10T20:33:37.019Z,86.43
2018-06-10T20:36:06.527Z,87.35
2018-06-10T20:38:35.864Z,87.34
2018-06-10T20:41:05.082Z,87.70
2018-06-10T20:43:34.274Z,87.59
2018-06-10T20:46:03.527Z,87.96
2018-06-10T20:48:32.776Z,87.20
2018-06-10T20:51:02.051Z,86.89
2018-06-10T20:53:31.938Z,86.91
2018-06-10T20:56:01.141Z,86.59
2018-06-10T20:58:30.335Z,87.87
2018-06-10T21:00:59.550Z,86.72
2018-06-10T21:03:29.043Z,86.74
2018-06-10T21:05:58.458Z,87.79
2018-06-10T21:08:28.544Z,88.28
2018-06-10T21:10:58.829Z,87.22
2018-06-10T21:13:28.008Z,86.96
2018-06-10T21:15:57.352Z,86.37
2018-06-10T21:18:26.631Z,88.47
2018-06-10T21:20:56.075Z,87.38
2018-06-10T21:23:25.295Z,87.12
2018-06-10T21:25:54.502Z,87.25
2018-06-10T21:28:23.691Z,88.10
2018-06-10T21:30:53.195Z,86.61
2018-06-10T21:33:22.402Z,87.54
2018-06-10T21:35:52.375Z,88.47
2018-06-10T21:38:21.565Z,88.00
2018-06-10T21:40:51.060Z,87.25
2018-06-10T21:43:20.410Z,88.04
2018-06-10T21:45:49.590Z,88.35
2018-06-10T21:48:19.422Z,87.53
2018-06-10T21:50:48.666Z,86.86
2018-06-10T21:53:18.287Z,87.62
2018-06-10T21:55:48.479Z,87.46
2018-06-10T21:58:17.769Z,87.18
2018-06-10T22:00:46.921Z,87.32
2018-06-10T22:03:16.139Z,87.40
2018-06-10T22:05:45.314Z,87.40
2018-06-10T22:08:14.527Z,86.84
2018-06-10T22:10:43.711Z,87.54
2018-06-10T22:13:13.176Z,87.64
2018-06-10T22:15:42.357Z,86.86
2018-06-10T22:18:11.714Z,87.20
2018-06-10T22:20:41.183Z,86.21
2018-06-10T22:23:10.382Z,86.43
2018-06-10T22:25:39.658Z,86.38
2018-06-10T22:28:08.850Z,87.28
2018-06-10T22:30:38.027Z,86.85
2018-06-10T22:33:07.739Z,87.08
2018-06-10T22:35:36.931Z,87.25
2018-06-10T22:38:06.186Z,87.53
2018-06-10T22:40:35.702Z,87.23
2018-06-10T22:43:04.935Z,87.13
2018-06-10T22:45:34.110Z,86.84
2018-06-10T22:48:03.318Z,87.07
2018-06-10T22:50:32.490Z,86.07
2018-06-10T22:55:13.174Z,87.40
2018-06-10T22:57:42.369Z,86.75
2018-06-10T23:00:11.598Z,86.84
2018-06-10T23:02:40.626Z,86.62
2018-06-10T23:05:10.282Z,86.55
2018-06-10T23:07:39.663Z,86.00
2018-06-10T23:10:08.855Z,87.13
2018-06-10T23:12:38.047Z,86.70
2018-06-10T23:15:07.259Z,86.78
2018-06-10T23:17:36.432Z,86.86
2018-06-10T23:20:05.775Z,86.09
2018-06-10T23:22:34.955Z,86.14
2018-06-10T23:25:04.187Z,86.34
2018-06-10T23:27:33.351Z,87.21
2018-06-10T23:30:02.607Z,87.05
2018-06-10T23:32:31.998Z,87.59
2018-06-10T23:35:01.258Z,87.41
2018-06-10T23:37:30.549Z,86.76
2018-06-10T23:39:59.778Z,87.00
2018-06-10T23:42:29.098Z,87.81
2018-06-10T23:44:58.310Z,88.18
2018-06-10T23:47:27.484Z,86.84
2018-06-10T23:49:56.742Z,84.82
2018-06-10T23:52:26.248Z,87.58
2018-06-10T23:54:55.663Z,85.71
2018-06-10T23:57:24.859Z,84.95
2018-06-10T23:59:54.282Z,86.54
